createdAt,value
2022-10-31T00:03:44.252Z,19.68
2022-10-31T00:08:58.647Z,19.65
2022-10-31T00:14:12.901Z,19.60
2022-10-31T00:19:24.907Z,19.57
2022-10-31T00:24:31.939Z,19.52
2022-10-31T00:29:41.653Z,19.49
2022-10-31T00:34:47.372Z,19.43
2022-10-31T00:40:22.508Z,19.40
2022-10-31T00:45:36.137Z,19.36
2022-10-31T00:50:41.530Z,19.33
2022-10-31T00:55:45.778Z,19.30
2022-10-31T01:01:00.180Z,19.27
2022-10-31T01:06:12.556Z,19.25
2022-10-31T01:11:25.737Z,19.25
2022-10-31T01:16:31.100Z,19.24
2022-10-31T01:21:37.376Z,19.23
2022-10-31T01:26:40.779Z,19.22
2022-10-31T01:31:48.638Z,19.23
2022-10-31T01:36:58.481Z,19.22
2022-10-31T01:42:36.070Z,19.19
2022-10-31T01:47:50.960Z,19.18
2022-10-31T01:52:59.611Z,19.14
2022-10-31T01:58:11.049Z,19.11
2022-10-31T02:05:22.000Z,19.07
2022-10-31T02:13:52.403Z,19.02
2022-10-31T02:19:00.178Z,18.98
2022-10-31T02:24:50.669Z,18.95
2022-10-31T02:30:29.150Z,18.92
2022-10-31T02:36:19.798Z,18.89
2022-10-31T02:41:51.985Z,18.86
2022-10-31T02:47:17.183Z,18.84
2022-10-31T02:52:32.163Z,18.80
2022-10-31T02:57:43.018Z,18.74
2022-10-31T03:03:15.310Z,18.71
2022-10-31T03:08:37.395Z,18.66
2022-10-31T03:14:21.993Z,18.62
2022-10-31T03:19:38.302Z,18.58
2022-10-31T03:24:48.232Z,18.57
2022-10-31T03:30:14.711Z,18.53
2022-10-31T03:35:31.816Z,18.50
2022-10-31T03:40:40.187Z,18.50
2022-10-31T03:45:49.752Z,18.50
2022-10-31T03:51:40.293Z,18.49
2022-10-31T04:02:34.240Z,18.45
2022-10-31T04:07:43.375Z,18.42
2022-10-31T04:12:51.763Z,18.39
2022-10-31T04:18:06.152Z,18.36
2022-10-31T04:23:27.098Z,18.35
2022-10-31T04:28:34.255Z,18.32
2022-10-31T04:33:41.031Z,18.30
2022-10-31T04:38:43.140Z,18.26
2022-10-31T04:43:59.044Z,18.22
2022-10-31T04:49:04.375Z,18.16
2022-10-31T04:54:06.894Z,18.11
2022-10-31T04:59:33.147Z,18.10
2022-10-31T05:04:38.081Z,18.10
2022-10-31T05:09:40.167Z,18.09
2022-10-31T05:14:44.786Z,18.09
2022-10-31T05:33:14.908Z,18.07
2022-10-31T05:38:36.043Z,18.08
2022-10-31T05:43:47.136Z,18.08
2022-10-31T05:49:05.304Z,18.08
2022-10-31T05:54:27.150Z,18.08
2022-10-31T05:59:29.326Z,18.08
2022-10-31T06:04:31.427Z,18.06
2022-10-31T06:09:34.186Z,18.04
2022-10-31T06:14:37.574Z,18.03
2022-10-31T06:19:39.700Z,18.02
2022-10-31T06:24:45.056Z,18.02
2022-10-31T06:30:12.882Z,18.02
2022-10-31T06:35:14.952Z,18.04
2022-10-31T06:40:17.838Z,18.08
2022-10-31T06:45:44.647Z,18.14
2022-10-31T06:50:57.120Z,18.26
2022-10-31T06:56:03.453Z,18.34
2022-10-31T07:01:13.946Z,18.43
2022-10-31T07:06:16.196Z,18.54
2022-10-31T07:11:24.175Z,18.60
2022-10-31T07:16:26.280Z,18.68
2022-10-31T07:21:28.994Z,18.79
2022-10-31T07:26:31.619Z,18.93
2022-10-31T07:31:33.684Z,19.05
2022-10-31T07:36:41.301Z,19.21
2022-10-31T07:41:43.246Z,19.78
2022-10-31T07:46:46.102Z,20.97
2022-10-31T07:52:27.570Z,21.94
2022-10-31T07:58:00.733Z,22.58
2022-10-31T08:03:14.772Z,23.13
2022-10-31T08:08:38.304Z,23.51
2022-10-31T08:13:44.030Z,23.40
2022-10-31T08:18:49.662Z,23.17
2022-10-31T08:23:58.199Z,22.84
2022-10-31T08:29:00.793Z,22.41
2022-10-31T08:34:07.137Z,22.28
2022-10-31T08:39:28.992Z,22.32
2022-10-31T08:44:30.890Z,22.40
2022-10-31T08:49:32.869Z,22.45
2022-10-31T08:54:34.794Z,22.55
2022-10-31T08:59:55.052Z,22.72
2022-10-31T09:05:19.483Z,22.87
2022-10-31T09:10:21.432Z,22.99
2022-10-31T09:15:23.364Z,23.00
2022-10-31T09:20:37.091Z,22.94
2022-10-31T09:25:40.544Z,22.96
2022-10-31T09:31:03.430Z,23.19
2022-10-31T09:36:23.910Z,23.38
2022-10-31T09:42:15.739Z,23.38
2022-10-31T09:47:25.901Z,23.45
2022-10-31T09:53:09.103Z,23.55
2022-10-31T09:58:19.553Z,23.58
2022-10-31T10:03:36.957Z,23.62
2022-10-31T10:09:01.925Z,23.63
2022-10-31T10:14:42.918Z,23.75
2022-10-31T10:19:54.096Z,24.01
2022-10-31T10:25:22.700Z,24.41
2022-10-31T10:30:42.354Z,24.77
2022-10-31T10:36:02.168Z,25.08
2022-10-31T10:41:19.697Z,25.34
2022-10-31T10:46:49.137Z,25.49
2022-10-31T10:57:54.116Z,25.70
2022-10-31T11:03:03.828Z,25.70
2022-10-31T11:08:07.149Z,25.77
2022-10-31T11:13:16.825Z,25.79
2022-10-31T11:18:28.236Z,25.71
2022-10-31T11:23:30.768Z,25.31
2022-10-31T11:28:36.043Z,25.34
2022-10-31T11:33:49.111Z,25.45
2022-10-31T11:38:52.653Z,25.26
2022-10-31T11:44:03.625Z,24.97
2022-10-31T11:49:12.361Z,24.73
2022-10-31T11:54:25.940Z,24.47
2022-10-31T11:59:30.461Z,24.46
2022-10-31T12:05:03.599Z,24.65
2022-10-31T12:10:13.173Z,24.93
2022-10-31T12:15:38.550Z,24.95
2022-10-31T12:20:53.886Z,25.11
2022-10-31T12:26:27.226Z,25.37
2022-10-31T12:31:55.475Z,25.42
2022-10-31T12:37:12.459Z,25.22
2022-10-31T12:42:45.667Z,25.41
2022-10-31T12:48:20.015Z,25.33
2022-10-31T12:53:50.959Z,25.21
2022-10-31T12:59:03.271Z,25.24
2022-10-31T13:04:35.313Z,25.05
2022-10-31T13:09:55.710Z,24.91
2022-10-31T13:15:32.458Z,24.61
2022-10-31T13:20:47.113Z,24.37
2022-10-31T13:25:55.172Z,24.05
2022-10-31T13:30:59.747Z,23.90
2022-10-31T13:36:04.543Z,23.93
2022-10-31T13:41:27.311Z,23.90
2022-10-31T13:51:46.471Z,23.75
2022-10-31T13:56:53.185Z,23.71
2022-10-31T14:02:03.465Z,23.66
2022-10-31T14:07:18.380Z,23.63
2022-10-31T14:12:32.042Z,23.45
2022-10-31T14:17:54.254Z,23.24
2022-10-31T14:22:56.390Z,23.19
2022-10-31T14:28:00.549Z,23.16
2022-10-31T14:33:18.144Z,23.15
2022-10-31T14:38:32.569Z,23.17
2022-10-31T14:44:18.145Z,23.22
2022-10-31T14:49:27.833Z,23.18
2022-10-31T14:54:38.677Z,23.12
2022-10-31T14:59:52.426Z,22.97
2022-10-31T15:04:57.407Z,22.80
2022-10-31T15:10:27.592Z,22.71
2022-10-31T15:15:29.755Z,22.61
2022-10-31T15:20:39.692Z,22.50
2022-10-31T15:25:42.182Z,22.47
2022-10-31T15:30:55.131Z,22.40
2022-10-31T15:35:59.392Z,22.29
2022-10-31T15:41:07.264Z,22.21
2022-10-31T15:46:11.187Z,22.16
2022-10-31T15:51:13.904Z,22.14
2022-10-31T15:56:27.747Z,22.15
2022-10-31T16:01:34.665Z,22.15
2022-10-31T16:06:37.142Z,22.12
2022-10-31T16:11:40.142Z,22.07
2022-10-31T16:16:53.596Z,22.09
2022-10-31T16:22:05.074Z,22.13
2022-10-31T16:27:18.155Z,22.09
2022-10-31T16:32:35.048Z,22.02
2022-10-31T16:37:40.995Z,21.99
2022-10-31T16:42:44.480Z,21.96
2022-10-31T16:47:47.899Z,21.90
2022-10-31T16:58:18.804Z,21.90
2022-10-31T17:03:21.152Z,21.90
2022-10-31T17:08:24.961Z,21.91
2022-10-31T17:13:30.870Z,21.90
2022-10-31T17:18:33.185Z,21.89
2022-10-31T17:23:36.006Z,21.86
2022-10-31T17:28:38.061Z,21.89
2022-10-31T17:33:40.093Z,21.90
2022-10-31T17:38:42.094Z,21.91
2022-10-31T17:43:44.048Z,21.87
2022-10-31T17:48:45.966Z,21.87
2022-10-31T17:53:48.066Z,21.87
2022-10-31T17:58:50.358Z,21.86
2022-10-31T18:03:52.378Z,21.85
2022-10-31T18:08:56.816Z,21.86
2022-10-31T18:14:00.295Z,21.89
2022-10-31T18:19:05.539Z,21.90
2022-10-31T18:24:09.133Z,21.93
2022-10-31T18:29:12.648Z,21.99
2022-10-31T18:34:16.244Z,22.02
2022-10-31T18:39:18.255Z,22.06
2022-10-31T18:44:22.396Z,22.08
2022-10-31T18:49:25.748Z,22.10
2022-10-31T18:54:27.639Z,22.11
2022-10-31T18:59:29.704Z,22.14
2022-10-31T19:04:32.482Z,22.14
2022-10-31T19:09:37.777Z,22.14
2022-10-31T19:14:39.938Z,22.14
2022-10-31T19:19:41.872Z,22.13
2022-10-31T19:24:43.755Z,22.13
2022-10-31T19:29:45.689Z,22.11
2022-10-31T19:34:47.601Z,22.11
2022-10-31T19:39:50.781Z,22.08
2022-10-31T19:44:53.836Z,22.05
2022-10-31T19:49:55.789Z,22.03
2022-10-31T19:54:57.725Z,22.02
2022-10-31T19:59:59.910Z,22.01
2022-10-31T20:05:02.100Z,22.00
2022-10-31T20:10:04.452Z,22.01
2022-10-31T20:15:09.526Z,22.01
2022-10-31T20:20:11.794Z,22.02
2022-10-31T20:25:14.011Z,22.01
2022-10-31T20:30:16.571Z,22.01
2022-10-31T20:35:19.308Z,22.03
2022-10-31T20:40:21.764Z,22.03
2022-10-31T20:45:25.037Z,22.01
2022-10-31T20:50:28.076Z,22.01
2022-10-31T20:55:30.053Z,21.98
2022-10-31T21:00:47.577Z,21.99
2022-10-31T21:06:03.158Z,21.97
2022-10-31T21:11:14.095Z,21.96
2022-10-31T21:16:23.275Z,21.96
2022-10-31T21:21:32.763Z,21.97
2022-10-31T21:26:38.423Z,21.96
2022-10-31T21:31:41.621Z,21.94
2022-10-31T21:36:43.605Z,21.91
2022-10-31T21:41:50.074Z,21.88
2022-10-31T21:46:54.720Z,21.83
2022-10-31T21:51:56.874Z,21.79
2022-10-31T21:57:01.628Z,21.75
2022-10-31T22:02:03.638Z,21.70
2022-10-31T22:07:05.658Z,21.68
2022-10-31T22:12:09.394Z,21.67
2022-10-31T22:17:11.434Z,21.63
2022-10-31T22:22:14.546Z,21.60
2022-10-31T22:27:16.954Z,21.58
2022-10-31T22:32:19.548Z,21.58
2022-10-31T22:37:21.576Z,21.57
2022-10-31T22:42:25.948Z,21.57
2022-10-31T22:47:28.165Z,21.55
2022-10-31T22:52:30.143Z,21.54
2022-10-31T22:57:41.749Z,21.53
2022-10-31T23:02:44.088Z,21.53
2022-10-31T23:07:46.373Z,21.52
2022-10-31T23:13:06.895Z,21.50
2022-10-31T23:18:18.812Z,21.51
2022-10-31T23:23:34.252Z,21.54
2022-10-31T23:28:36.307Z,21.53
2022-10-31T23:33:38.263Z,21.53
2022-10-31T23:38:40.337Z,21.53
2022-10-31T23:43:42.284Z,21.53
2022-10-31T23:48:48.120Z,21.51
2022-10-31T23:53:50.119Z,21.51
2022-10-31T23:58:52.230Z,21.51
